createdAt,value
2023-07-15T00:00:24.409Z,66.50
2023-07-15T00:02:53.179Z,66.90
2023-07-15T00:05:25.209Z,66.90
2023-07-15T00:07:54.126Z,67.00
2023-07-15T00:10:23.713Z,67.00
2023-07-15T00:12:53.372Z,67.70
2023-07-15T00:15:22.740Z,67.50
2023-07-15T00:17:51.971Z,67.70
2023-07-15T00:20:20.640Z,67.60
2023-07-15T00:22:50.356Z,67.10
2023-07-15T00:25:22.405Z,66.80
2023-07-15T00:27:51.037Z,66.60
2023-07-15T00:30:23.206Z,66.70
2023-07-15T00:32:52.408Z,66.70
2023-07-15T00:35:25.038Z,67.00
2023-07-15T00:37:54.671Z,66.90
2023-07-15T00:40:23.872Z,67.50
2023-07-15T00:43:29.501Z,66.60
2023-07-15T00:46:29.254Z,66.90
2023-07-15T00:49:03.699Z,66.80
2023-07-15T00:51:37.077Z,66.40
2023-07-15T00:54:06.077Z,66.10
2023-07-15T00:56:38.084Z,65.80
2023-07-15T00:59:07.076Z,65.70
2023-07-15T01:01:36.367Z,65.40
2023-07-15T01:04:08.368Z,65.40
2023-07-15T01:06:37.265Z,66.50
2023-07-15T01:09:08.648Z,66.10
2023-07-15T01:11:37.265Z,65.10
2023-07-15T01:14:06.076Z,65.50
2023-07-15T01:16:34.638Z,65.90
2023-07-15T01:19:03.994Z,65.80
2023-07-15T01:21:35.106Z,65.70
2023-07-15T01:24:07.383Z,66.30
2023-07-15T01:26:36.036Z,66.70
2023-07-15T01:29:04.582Z,66.20
2023-07-15T01:31:34.032Z,66.40
2023-07-15T01:34:02.385Z,66.80
2023-07-15T01:36:30.645Z,67.10
2023-07-15T01:39:01.290Z,68.20
2023-07-15T01:41:31.125Z,66.70
2023-07-15T01:43:59.377Z,66.60
2023-07-15T01:46:30.450Z,67.20
2023-07-15T01:49:00.468Z,67.10
2023-07-15T01:51:28.782Z,66.90
2023-07-15T01:53:57.139Z,67.20
2023-07-15T01:56:26.513Z,67.20
2023-07-15T01:58:56.234Z,67.20
2023-07-15T02:01:25.069Z,67.00
2023-07-15T02:03:53.480Z,67.10
2023-07-15T02:06:21.978Z,67.40
2023-07-15T02:08:50.255Z,67.50
2023-07-15T02:11:21.459Z,67.50
2023-07-15T02:13:51.472Z,67.70
2023-07-15T02:16:22.655Z,67.70
2023-07-15T02:18:50.942Z,68.00
2023-07-15T02:21:20.599Z,68.20
2023-07-15T02:23:48.932Z,68.10
2023-07-15T02:26:17.323Z,68.20
2023-07-15T02:28:46.369Z,67.80
2023-07-15T02:31:14.701Z,68.00
2023-07-15T02:33:44.360Z,67.80
2023-07-15T02:36:13.259Z,67.60
2023-07-15T02:38:41.923Z,67.40
2023-07-15T02:41:10.180Z,67.40
2023-07-15T02:43:38.413Z,67.40
2023-07-15T02:46:06.942Z,67.20
2023-07-15T02:48:35.217Z,67.20
2023-07-15T02:51:04.926Z,67.30
2023-07-15T02:53:33.255Z,67.50
2023-07-15T02:56:01.553Z,67.40
2023-07-15T02:58:29.860Z,67.30
2023-07-15T03:00:58.433Z,67.50
2023-07-15T03:03:26.756Z,67.80
2023-07-15T03:05:55.198Z,67.40
2023-07-15T03:08:25.352Z,67.60
2023-07-15T03:10:56.188Z,67.80
2023-07-15T03:13:26.932Z,67.90
2023-07-15T03:15:56.275Z,67.20
2023-07-15T03:18:26.346Z,67.50
2023-07-15T03:20:55.196Z,69.00
2023-07-15T03:23:24.865Z,67.90
2023-07-15T03:25:53.120Z,68.30
2023-07-15T03:28:24.497Z,68.50
2023-07-15T03:30:53.268Z,67.90
2023-07-15T03:33:22.785Z,67.90
2023-07-15T03:35:52.610Z,67.50
2023-07-15T03:38:24.219Z,67.70
2023-07-15T03:40:52.496Z,67.30
2023-07-15T03:43:21.608Z,67.30
2023-07-15T03:45:49.903Z,67.40
2023-07-15T03:48:18.141Z,67.10
2023-07-15T03:50:46.876Z,67.00
2023-07-15T03:53:15.135Z,67.20
2023-07-15T03:55:47.587Z,68.40
2023-07-15T03:58:15.898Z,68.00
2023-07-15T04:00:44.227Z,67.60
2023-07-15T04:03:12.477Z,67.10
2023-07-15T04:05:43.779Z,66.80
2023-07-15T04:08:12.109Z,66.60
2023-07-15T04:10:40.725Z,66.80
2023-07-15T04:13:10.368Z,67.50
2023-07-15T04:15:38.654Z,66.70
2023-07-15T04:18:07.005Z,66.20
2023-07-15T04:20:35.840Z,66.10
2023-07-15T04:23:04.270Z,66.20
2023-07-15T04:25:32.590Z,66.30
2023-07-15T04:28:00.920Z,67.30
2023-07-15T04:30:31.261Z,66.60
2023-07-15T04:32:59.659Z,66.40
2023-07-15T04:35:28.106Z,65.90
2023-07-15T04:37:57.385Z,66.10
2023-07-15T04:40:25.590Z,66.00
2023-07-15T04:42:53.878Z,65.90
2023-07-15T04:45:22.131Z,65.20
2023-07-15T04:47:51.853Z,65.00
2023-07-15T04:50:20.187Z,64.50
2023-07-15T04:52:48.547Z,64.00
2023-07-15T04:55:17.320Z,64.00
2023-07-15T04:57:45.773Z,63.80
2023-07-15T05:00:14.937Z,63.50
2023-07-15T05:02:43.212Z,63.10
2023-07-15T05:05:13.315Z,61.80
2023-07-15T05:07:56.839Z,61.20
2023-07-15T05:10:26.371Z,60.50
2023-07-15T05:12:54.680Z,60.70
2023-07-15T05:15:23.326Z,60.30
2023-07-15T05:17:52.056Z,59.70
2023-07-15T05:20:21.928Z,59.20
2023-07-15T05:22:50.346Z,61.70
2023-07-15T05:25:18.879Z,61.20
2023-07-15T05:27:47.217Z,59.50
2023-07-15T05:30:15.522Z,58.60
2023-07-15T05:32:44.095Z,59.70
2023-07-15T05:35:12.651Z,58.20
2023-07-15T05:37:42.693Z,58.00
2023-07-15T05:40:11.971Z,59.60
2023-07-15T05:42:42.041Z,58.00
2023-07-15T05:45:11.984Z,58.50
2023-07-15T05:47:40.976Z,56.80
2023-07-15T05:50:10.758Z,55.70
2023-07-15T05:52:39.089Z,54.90
2023-07-15T05:55:09.796Z,56.20
2023-07-15T05:57:38.322Z,58.50
2023-07-15T06:00:09.676Z,56.50
2023-07-15T06:02:40.924Z,55.50
2023-07-15T06:05:10.968Z,54.60
2023-07-15T06:07:39.543Z,54.80
2023-07-15T06:10:09.962Z,55.40
2023-07-15T06:12:38.205Z,56.10
2023-07-15T06:15:07.591Z,54.30
2023-07-15T06:17:36.001Z,55.40
2023-07-15T06:20:04.918Z,55.90
2023-07-15T06:22:33.242Z,55.90
2023-07-15T06:25:01.697Z,55.90
2023-07-15T06:27:31.362Z,55.10
2023-07-15T06:29:59.710Z,55.70
2023-07-15T06:32:28.027Z,55.70
2023-07-15T06:34:59.260Z,54.00
2023-07-15T06:37:27.498Z,54.70
2023-07-15T06:39:55.673Z,55.00
2023-07-15T06:42:23.956Z,55.30
2023-07-15T06:44:53.881Z,54.70
2023-07-15T06:47:22.256Z,54.30
2023-07-15T06:49:50.566Z,54.80
2023-07-15T06:52:18.826Z,55.80
2023-07-15T06:54:47.070Z,55.00
2023-07-15T06:57:15.628Z,55.30
2023-07-15T06:59:43.999Z,53.90
2023-07-15T07:02:13.717Z,54.60
2023-07-15T07:04:42.059Z,55.20
2023-07-15T07:07:10.301Z,54.10
2023-07-15T07:09:38.546Z,55.00
2023-07-15T07:12:07.392Z,53.30
2023-07-15T07:14:38.200Z,53.20
2023-07-15T07:17:07.642Z,54.40
2023-07-15T07:19:37.277Z,54.70
2023-07-15T07:22:06.305Z,51.80
2023-07-15T07:24:34.624Z,53.90
2023-07-15T07:27:02.895Z,53.30
2023-07-15T07:29:31.166Z,54.40
2023-07-15T07:31:59.416Z,54.80
2023-07-15T07:34:27.842Z,52.90
2023-07-15T07:36:57.461Z,54.40
2023-07-15T07:39:25.765Z,53.70
2023-07-15T07:41:54.165Z,54.00
2023-07-15T07:44:22.467Z,53.70
2023-07-15T07:46:50.889Z,52.20
2023-07-15T07:49:19.235Z,54.80
2023-07-15T07:51:47.507Z,53.30
2023-07-15T07:54:17.232Z,52.10
2023-07-15T07:56:45.471Z,52.90
2023-07-15T07:59:13.768Z,53.40
2023-07-15T08:01:42.000Z,52.00
2023-07-15T08:04:10.559Z,52.60
2023-07-15T08:06:40.792Z,50.90
2023-07-15T08:09:09.151Z,51.30
2023-07-15T08:11:39.961Z,48.50
2023-07-15T08:14:08.776Z,50.90
2023-07-15T08:16:38.998Z,48.70
2023-07-15T08:19:08.958Z,49.70
2023-07-15T08:21:37.312Z,53.10
2023-07-15T08:24:05.894Z,51.60
2023-07-15T08:26:34.315Z,51.70
2023-07-15T08:29:04.909Z,51.50
2023-07-15T08:31:33.232Z,51.50
2023-07-15T08:34:01.544Z,51.10
2023-07-15T08:36:29.794Z,51.20
2023-07-15T08:39:00.248Z,51.40
2023-07-15T08:41:28.789Z,50.80
2023-07-15T08:43:57.108Z,49.00
2023-07-15T08:46:30.657Z,48.80
2023-07-15T08:49:02.158Z,49.70
2023-07-15T08:51:33.560Z,49.00
2023-07-15T08:54:04.375Z,49.10
2023-07-15T08:56:35.676Z,50.20
2023-07-15T08:59:05.449Z,48.00
2023-07-15T09:01:36.644Z,48.40
2023-07-15T09:04:05.712Z,48.90
2023-07-15T09:06:34.741Z,48.90
2023-07-15T09:09:03.029Z,49.30
2023-07-15T09:11:40.382Z,51.50
2023-07-15T09:14:17.780Z,48.00
2023-07-15T09:16:47.928Z,48.70
2023-07-15T09:19:16.310Z,47.50
2023-07-15T09:21:53.715Z,49.40
2023-07-15T09:24:22.141Z,45.70
2023-07-15T09:26:53.771Z,46.10
2023-07-15T09:29:22.771Z,45.70
2023-07-15T09:31:54.731Z,44.70
2023-07-15T09:34:24.025Z,46.40
2023-07-15T09:36:53.045Z,45.90
2023-07-15T09:39:25.105Z,45.70
2023-07-15T09:42:03.670Z,45.70
2023-07-15T09:44:36.885Z,46.50
2023-07-15T09:47:07.299Z,44.90
2023-07-15T09:49:36.184Z,44.90
2023-07-15T09:52:06.958Z,44.80
2023-07-15T09:54:36.241Z,45.30
2023-07-15T09:57:09.936Z,44.60
2023-07-15T09:59:46.204Z,44.50
2023-07-15T10:02:29.647Z,45.80
2023-07-15T10:05:05.130Z,45.30
2023-07-15T10:07:34.261Z,42.40
2023-07-15T10:10:03.352Z,43.70
2023-07-15T10:12:34.543Z,42.00
2023-07-15T10:15:03.961Z,42.50
2023-07-15T10:17:40.339Z,42.80
2023-07-15T10:20:12.605Z,43.40
2023-07-15T10:22:42.045Z,43.30
2023-07-15T10:25:12.589Z,45.30
2023-07-15T10:27:41.238Z,44.90
2023-07-15T10:30:20.977Z,43.80
2023-07-15T10:33:13.722Z,43.20
2023-07-15T10:35:53.498Z,44.10
2023-07-15T10:38:24.364Z,40.90
2023-07-15T10:40:54.156Z,43.20
2023-07-15T10:43:24.014Z,42.60
2023-07-15T10:45:54.498Z,44.20
2023-07-15T10:48:24.698Z,42.00
2023-07-15T10:50:57.335Z,42.90
2023-07-15T10:53:27.444Z,45.80
2023-07-15T10:55:58.073Z,43.20
2023-07-15T10:58:26.398Z,43.20
2023-07-15T11:01:00.938Z,42.70
2023-07-15T11:03:32.075Z,41.90
2023-07-15T11:06:02.758Z,41.90
2023-07-15T11:08:31.975Z,41.80
2023-07-15T11:11:01.091Z,42.00
2023-07-15T11:13:30.260Z,40.90
2023-07-15T11:15:59.764Z,41.70
2023-07-15T11:18:30.356Z,42.00
2023-07-15T11:20:59.791Z,42.70
2023-07-15T11:23:30.219Z,42.00
2023-07-15T11:25:59.737Z,43.10
2023-07-15T11:28:28.543Z,41.40
2023-07-15T11:30:59.750Z,41.90
2023-07-15T11:33:28.058Z,43.70
2023-07-15T11:36:00.943Z,43.30
2023-07-15T11:38:35.320Z,42.40
2023-07-15T11:41:04.261Z,42.70
2023-07-15T11:43:33.492Z,40.50
2023-07-15T11:46:03.098Z,42.30
2023-07-15T11:48:33.582Z,42.60
2023-07-15T11:51:07.679Z,42.20
2023-07-15T11:53:40.697Z,41.60
2023-07-15T11:56:09.042Z,40.00
2023-07-15T11:58:44.424Z,42.00
2023-07-15T12:01:20.953Z,41.00
2023-07-15T12:03:50.099Z,41.10
2023-07-15T12:06:21.334Z,40.80
2023-07-15T12:09:04.987Z,41.50
2023-07-15T12:11:34.724Z,42.00
2023-07-15T12:14:05.107Z,40.60
2023-07-15T12:16:35.381Z,41.20
2023-07-15T12:19:13.364Z,38.50
2023-07-15T12:21:43.711Z,40.90
2023-07-15T12:24:11.998Z,36.70
2023-07-15T12:26:40.677Z,35.90
2023-07-15T12:29:08.928Z,38.60
2023-07-15T12:31:37.200Z,38.20
2023-07-15T12:34:05.454Z,39.40
2023-07-15T12:36:33.778Z,37.90
2023-07-15T12:39:03.462Z,37.20
2023-07-15T12:41:31.718Z,32.90
2023-07-15T12:43:59.951Z,37.10
2023-07-15T12:46:28.290Z,35.00
2023-07-15T12:48:56.851Z,36.90
2023-07-15T12:51:25.091Z,35.60
2023-07-15T12:53:53.365Z,35.70
2023-07-15T12:56:23.038Z,34.20
2023-07-15T12:58:51.312Z,35.00
2023-07-15T13:01:20.990Z,35.10
2023-07-15T13:03:49.518Z,36.50
2023-07-15T13:06:20.661Z,36.60
2023-07-15T13:08:48.946Z,36.80
2023-07-15T13:11:17.631Z,37.10
2023-07-15T13:13:49.481Z,36.90
2023-07-15T13:16:18.269Z,37.30
2023-07-15T13:18:47.454Z,35.30
2023-07-15T13:21:18.199Z,36.00
2023-07-15T13:23:46.752Z,37.40
2023-07-15T13:26:15.105Z,36.80
2023-07-15T13:28:43.516Z,35.10
2023-07-15T13:31:14.080Z,36.90
2023-07-15T13:33:42.755Z,35.10
2023-07-15T13:36:11.179Z,37.10
2023-07-15T13:38:39.450Z,38.30
2023-07-15T13:41:07.715Z,37.70
2023-07-15T13:43:36.017Z,36.40
2023-07-15T13:46:04.657Z,38.00
2023-07-15T13:48:34.437Z,37.90
2023-07-15T13:51:02.807Z,38.10
2023-07-15T13:53:31.084Z,37.80
2023-07-15T13:55:59.581Z,37.70
2023-07-15T13:58:27.837Z,40.10
2023-07-15T14:00:56.205Z,38.60
2023-07-15T14:03:27.568Z,38.10
2023-07-15T14:05:57.326Z,37.90
2023-07-15T14:08:25.598Z,38.30
2023-07-15T14:10:53.959Z,37.20
2023-07-15T14:13:22.199Z,37.20
2023-07-15T14:15:50.474Z,38.90
2023-07-15T14:18:18.748Z,38.40
2023-07-15T14:20:47.038Z,38.00
2023-07-15T14:23:17.782Z,37.40
2023-07-15T14:25:46.132Z,36.00
2023-07-15T14:28:14.379Z,36.50
2023-07-15T14:30:42.815Z,35.00
2023-07-15T14:33:11.229Z,38.00
2023-07-15T14:35:41.696Z,36.50
2023-07-15T14:38:09.976Z,37.70
2023-07-15T14:40:40.850Z,35.50
2023-07-15T14:43:09.823Z,36.90
2023-07-15T14:45:38.083Z,36.60
2023-07-15T14:48:06.926Z,36.70
2023-07-15T14:50:35.295Z,39.40
2023-07-15T14:53:07.968Z,37.50
2023-07-15T14:55:36.316Z,37.20
2023-07-15T14:58:06.289Z,36.30
2023-07-15T15:00:34.637Z,36.50
2023-07-15T15:03:03.078Z,35.00
2023-07-15T15:05:31.469Z,35.50
2023-07-15T15:07:59.753Z,35.20
2023-07-15T15:10:28.145Z,37.40
2023-07-15T15:12:56.398Z,38.40
2023-07-15T15:15:26.026Z,38.80
2023-07-15T15:17:54.405Z,37.40
2023-07-15T15:20:22.892Z,37.90
2023-07-15T15:22:51.393Z,36.60
2023-07-15T15:25:22.175Z,38.80
2023-07-15T15:27:50.452Z,38.50
2023-07-15T15:30:21.501Z,38.40
2023-07-15T15:32:51.249Z,38.60
2023-07-15T15:35:19.676Z,39.20
2023-07-15T15:37:47.933Z,38.30
2023-07-15T15:40:16.312Z,38.50
2023-07-15T15:42:46.635Z,38.50
2023-07-15T15:45:16.752Z,38.70
2023-07-15T15:47:45.046Z,38.60
2023-07-15T15:50:14.843Z,39.50
2023-07-15T15:52:46.654Z,38.70
2023-07-15T15:55:15.104Z,38.90
2023-07-15T15:57:43.760Z,38.80
2023-07-15T16:00:18.857Z,39.20
2023-07-15T16:02:47.390Z,38.80
2023-07-15T16:05:17.284Z,39.00
2023-07-15T16:07:45.554Z,39.20
2023-07-15T16:10:14.701Z,38.80
2023-07-15T16:12:43.005Z,38.30
2023-07-15T16:15:12.058Z,39.70
2023-07-15T16:17:40.411Z,39.80
2023-07-15T16:20:09.884Z,39.10
2023-07-15T16:22:39.593Z,39.10
2023-07-15T16:25:09.093Z,39.50
2023-07-15T16:27:37.391Z,39.80
2023-07-15T16:30:06.590Z,41.00
2023-07-15T16:32:34.933Z,39.40
2023-07-15T16:35:04.929Z,40.10
2023-07-15T16:37:33.293Z,39.20
2023-07-15T16:40:04.783Z,40.70
2023-07-15T16:42:33.204Z,39.80
2023-07-15T16:45:01.440Z,40.40
2023-07-15T16:47:29.724Z,40.60
2023-07-15T16:50:00.489Z,40.50
2023-07-15T16:52:28.744Z,40.20
2023-07-15T16:54:56.993Z,43.70
2023-07-15T16:57:27.300Z,45.00
2023-07-15T16:59:55.679Z,44.80
2023-07-15T17:02:24.313Z,45.30
2023-07-15T17:04:52.601Z,45.20
2023-07-15T17:07:20.855Z,45.70
2023-07-15T17:09:49.136Z,45.90
2023-07-15T17:12:17.654Z,46.00
2023-07-15T17:14:47.261Z,47.00
2023-07-15T17:17:15.596Z,46.80
2023-07-15T17:19:43.861Z,47.40
2023-07-15T17:22:12.883Z,48.10
2023-07-15T17:24:41.136Z,47.90
2023-07-15T17:27:09.749Z,48.20
2023-07-15T17:29:40.435Z,48.50
2023-07-15T17:32:10.257Z,48.90
2023-07-15T17:34:38.870Z,49.40
2023-07-15T17:37:08.040Z,50.20
2023-07-15T17:39:36.335Z,50.00
2023-07-15T17:42:04.742Z,51.40
2023-07-15T17:44:33.695Z,52.90
2023-07-15T17:47:02.483Z,52.20
2023-07-15T17:49:32.954Z,50.90
2023-07-15T17:52:02.702Z,51.00
2023-07-15T17:54:30.958Z,51.30
2023-07-15T17:57:00.279Z,51.90
2023-07-15T17:59:28.544Z,51.80
2023-07-15T18:01:59.005Z,52.90
2023-07-15T18:04:27.250Z,53.90
2023-07-15T18:06:58.710Z,53.90
2023-07-15T18:09:26.993Z,53.80
2023-07-15T18:11:55.236Z,54.20
2023-07-15T18:14:23.603Z,54.90
2023-07-15T18:16:51.921Z,54.50
2023-07-15T18:19:20.228Z,54.90
2023-07-15T18:21:48.505Z,55.00
2023-07-15T18:24:21.147Z,54.60
2023-07-15T18:26:49.398Z,55.20
2023-07-15T18:29:17.657Z,55.20
2023-07-15T18:31:46.046Z,55.20
2023-07-15T18:34:23.494Z,56.00
2023-07-15T18:36:52.975Z,55.30
2023-07-15T18:39:22.687Z,55.70
2023-07-15T18:41:50.925Z,55.70
2023-07-15T18:44:19.210Z,55.10
2023-07-15T18:46:47.665Z,55.30
2023-07-15T18:49:15.977Z,55.50
2023-07-15T18:51:44.262Z,56.00
2023-07-15T18:54:12.581Z,56.30
2023-07-15T18:56:42.292Z,55.70
2023-07-15T18:59:10.662Z,55.90
2023-07-15T19:01:39.191Z,56.00
2023-07-15T19:04:07.575Z,57.00
2023-07-15T19:06:35.925Z,55.60
2023-07-15T19:09:04.388Z,55.90
2023-07-15T19:11:33.905Z,56.20
2023-07-15T19:14:05.060Z,56.50
2023-07-15T19:16:33.419Z,56.00
2023-07-15T19:19:01.897Z,56.50
2023-07-15T19:21:30.184Z,56.50
2023-07-15T19:23:58.416Z,56.70
2023-07-15T19:26:27.044Z,56.90
2023-07-15T19:28:55.457Z,57.20
2023-07-15T19:31:25.246Z,57.30
2023-07-15T19:33:55.011Z,57.30
2023-07-15T19:36:24.717Z,57.40
2023-07-15T19:38:53.003Z,57.80
2023-07-15T19:41:24.290Z,57.90
2023-07-15T19:43:52.555Z,58.10
2023-07-15T19:46:21.157Z,58.30
2023-07-15T19:48:51.069Z,58.40
2023-07-15T19:51:31.102Z,58.50
2023-07-15T19:54:07.603Z,58.70
2023-07-15T19:56:37.861Z,58.80
2023-07-15T19:59:07.286Z,58.60
2023-07-15T20:01:36.488Z,58.70
2023-07-15T20:04:06.604Z,58.70
2023-07-15T20:06:34.920Z,58.90
2023-07-15T20:09:03.238Z,59.00
2023-07-15T20:11:31.485Z,59.00
2023-07-15T20:14:00.014Z,58.90
2023-07-15T20:16:28.862Z,59.10
2023-07-15T20:18:57.671Z,59.00
2023-07-15T20:21:27.269Z,59.30
2023-07-15T20:23:55.507Z,59.30
2023-07-15T20:26:23.785Z,60.00
2023-07-15T20:28:51.978Z,59.40
2023-07-15T20:31:23.179Z,59.40
2023-07-15T20:33:51.422Z,59.40
2023-07-15T20:36:19.955Z,59.60
2023-07-15T20:38:49.632Z,59.50
2023-07-15T20:41:21.305Z,59.70
2023-07-15T20:43:49.592Z,59.90
2023-07-15T20:46:22.982Z,60.00
2023-07-15T20:48:51.267Z,60.10
2023-07-15T20:51:19.558Z,60.00
2023-07-15T20:53:49.219Z,59.90
2023-07-15T20:56:17.775Z,60.00
2023-07-15T20:58:46.229Z,60.40
2023-07-15T21:01:14.566Z,60.40
2023-07-15T21:03:42.872Z,60.50
2023-07-15T21:06:11.191Z,60.70
2023-07-15T21:08:40.168Z,61.00
2023-07-15T21:11:11.002Z,60.60
2023-07-15T21:13:39.221Z,60.90
2023-07-15T21:16:07.512Z,60.60
2023-07-15T21:18:37.831Z,60.80
2023-07-15T21:21:06.278Z,61.20
2023-07-15T21:23:34.578Z,60.70
2023-07-15T21:26:07.754Z,61.20
2023-07-15T21:28:40.397Z,61.20
2023-07-15T21:31:09.335Z,60.80
2023-07-15T21:33:41.223Z,61.10
2023-07-15T21:36:09.458Z,61.20
2023-07-15T21:38:37.717Z,60.90
2023-07-15T21:41:07.413Z,61.20
2023-07-15T21:43:37.101Z,61.50
2023-07-15T21:46:05.550Z,61.50
2023-07-15T21:48:33.855Z,62.00
2023-07-15T21:51:02.698Z,62.00
2023-07-15T21:53:31.215Z,61.80
2023-07-15T21:55:59.478Z,62.20
2023-07-15T21:58:27.876Z,62.00
2023-07-15T22:00:59.602Z,62.30
2023-07-15T22:03:28.200Z,61.50
2023-07-15T22:05:57.220Z,61.50
2023-07-15T22:08:25.478Z,62.00
2023-07-15T22:10:53.757Z,61.80
2023-07-15T22:13:22.130Z,62.50
2023-07-15T22:15:50.476Z,62.60
2023-07-15T22:18:37.913Z,63.20
2023-07-15T22:21:08.407Z,64.50
2023-07-15T22:23:36.694Z,62.60
2023-07-15T22:26:05.014Z,62.80
2023-07-15T22:28:33.246Z,62.20
2023-07-15T22:31:04.286Z,62.30
2023-07-15T22:33:33.934Z,61.00
2023-07-15T22:36:02.881Z,61.00
2023-07-15T22:38:31.252Z,62.00
2023-07-15T22:40:59.706Z,61.20
2023-07-15T22:43:27.997Z,61.10
2023-07-15T22:45:57.371Z,61.30
2023-07-15T22:48:27.493Z,61.10
2023-07-15T22:50:57.131Z,60.40
2023-07-15T22:53:25.924Z,60.70
2023-07-15T22:55:54.311Z,61.80
2023-07-15T22:58:22.707Z,61.60
2023-07-15T23:00:57.379Z,61.00
2023-07-15T23:03:26.345Z,61.30
2023-07-15T23:05:56.052Z,61.40
2023-07-15T23:08:24.297Z,61.60
2023-07-15T23:10:52.547Z,61.60
2023-07-15T23:13:20.816Z,62.30
2023-07-15T23:15:54.083Z,61.60
2023-07-15T23:18:31.319Z,62.10
2023-07-15T23:21:00.943Z,62.20
2023-07-15T23:23:29.339Z,62.20
2023-07-15T23:25:57.627Z,62.30
2023-07-15T23:28:25.889Z,62.00
2023-07-15T23:30:54.159Z,62.50
2023-07-15T23:33:22.523Z,61.80
2023-07-15T23:35:51.860Z,61.90
2023-07-15T23:38:21.583Z,61.90
2023-07-15T23:40:50.364Z,62.80
2023-07-15T23:43:18.625Z,62.50
2023-07-15T23:45:46.888Z,63.00
2023-07-15T23:48:15.258Z,62.90
2023-07-15T23:50:46.280Z,62.90
2023-07-15T23:53:15.482Z,63.20
2023-07-15T23:55:45.204Z,64.40
2023-07-15T23:58:13.494Z,63.80
